Byromville, Georgia
Current Conditions -  °F | °C
As of 9:35 PM on Saturday 20 Dec 2014 (Local Time) from KACJ Reporting Station
Light Rain Light Rain  
Wind Chill: 52°   Ceiling: 700
Heat Index: 52°   Visibility: 7mi
Dew Point: 52°   Wind: 6mph
Humidity: 100%   Direction: 60°ENE
Pressure: 30.19"   Gusts: NA
Location:  32.2°N, 83.91°W
Report Text: KACJ 210235Z AUTO 06005KT 7SM -RA OVC007 11/11 A3019 RMK AO2
Loading
Personal Weather Stations






























Interactive Weather Map New forecast layout! Learn more

10-Day Weather Forecast

Advertisements
Track Severe Weather on mobile